Latest Weather Observations for Macquarie Island*

IDT60801

Issued at 10:21 pm EDT Saturday 28 November 2020 (issued every 10 minutes, with the page automatically refreshed every 10 minutes)

About weather observations | Map of weather stations | Latest weather observations for ANT | Other Formats
Station Details ID: 300004 Name: MACQUARIE ISLAND Lat: -54.50 Lon: 158.94 Height: 6.0 m
Data from the previous 72 hours. | See also: Recent months at Macquarie Island*
Date/Time
EDT
Temp
°C
App
Temp
°C
Dew
Point
°C
Rel
Hum
%
Delta-T
°C
Wind Press
QNH
hPa
Press
MSL
hPa
Rain since
9am
mm
Dir  Spd
km/h
Gust
km/h
Spd
kts
Gust
kts
28/10:00pm 4.5 -6.0 -0.9 68 2.0 WNW 44 57 24 31 985.0 - 4.4
28/09:30pm 4.4 -6.4 -0.6 70 1.9 W 46 61 25 33 984.7 - 4.4
28/09:00pm 3.8 -6.4 -0.4 74 1.6 W 43 52 23 28 984.4 984.7 4.4
28/08:30pm 4.3 -6.0 0.1 74 1.6 W 44 57 24 31 983.9 - 4.4
28/08:00pm 4.2 -7.4 -0.6 71 1.8 W 50 59 27 32 983.4 - 4.4
28/07:30pm 4.0 -6.6 1.0 81 1.2 W 46 61 25 33 983.2 - 4.4
28/07:00pm 4.5 -6.3 2.0 84 1.0 W 48 67 26 36 982.5 - 4.4
28/06:57pm 4.8 -6.1 1.6 80 1.3 W 48 67 26 36 982.4 - 4.4
28/06:30pm 4.0 -6.5 1.4 83 1.0 W 46 61 25 33 982.2 - 4.2
28/06:28pm 3.7 -7.6 1.1 83 1.0 W 50 61 27 33 982.3 - 4.2
28/06:19pm 5.2 -5.7 1.5 77 1.5 WNW 48 70 26 38 981.8 - 4.2
28/06:00pm 5.4 -5.1 1.3 75 1.6 WNW 46 56 25 30 981.4 981.7 4.2
28/05:30pm 5.5 -4.2 2.7 82 1.1 W 43 54 23 29 981.1 - 4.2
28/05:00pm 4.0 -6.8 1.7 85 0.9 W 48 56 26 30 980.9 - 4.0
28/04:58pm 4.2 -6.6 1.7 84 1.0 W 48 56 26 30 980.9 - 3.8
28/04:30pm 5.1 -2.7 3.1 87 0.8 WNW 33 41 18 22 980.2 - 3.6
28/04:00pm 3.6 -3.0 2.1 90 0.6 WNW 26 30 14 16 979.8 - 3.6
28/03:59pm 3.6 -3.4 2.1 90 0.6 WNW 28 30 15 16 979.8 - 3.6
28/03:30pm 3.3 -5.8 2.0 91 0.5 W 39 46 21 25 979.9 - 3.2
28/03:00pm 4.0 -5.1 1.9 86 0.8 W 39 52 21 28 979.7 980.0 1.0
28/02:53pm 4.7 -4.4 2.1 83 1.0 WSW 39 46 21 25 979.4 - 0.2
28/02:42pm 6.6 -3.0 3.2 79 1.4 WNW 43 61 23 33 978.9 - 0.2
28/02:41pm 7.1 -2.4 3.7 79 1.4 NW 43 61 23 33 978.7 - 0.2
28/02:30pm 7.9 -1.5 4.7 80 1.4 NNW 43 52 23 28 978.5 - 0.2
28/02:00pm 9.0 0.1 5.2 77 1.7 NNW 41 50 22 27 978.7 - 0.2
28/01:30pm 8.5 -0.4 5.3 80 1.4 NNW 41 52 22 28 978.9 - 0.2
28/01:00pm 8.4 -0.9 5.2 80 1.4 NNW 43 52 23 28 978.9 - 0.0
28/12:30pm 8.4 0.4 5.5 82 1.3 NNW 37 43 20 23 979.2 - 0.0
28/12:00pm 8.4 0.3 5.3 81 1.4 NNW 37 44 20 24 979.5 979.8 0.0
28/11:30am 7.6 0.1 4.6 81 1.3 NNW 33 43 18 23 979.6 - 0.0
28/11:00am 7.1 -1.3 3.7 79 1.4 NW 37 44 20 24 979.8 - 0.0
28/10:30am 7.2 -0.8 4.0 80 1.4 NW 35 43 19 23 979.9 - 0.0
28/10:00am 6.9 -1.8 4.0 82 1.2 NW 39 48 21 26 980.0 - 0.0
28/09:30am 7.0 -1.2 4.7 85 1.0 NW 37 46 20 25 980.2 - 0.0
28/09:00am 6.9 -1.7 4.4 84 1.1 NW 39 44 21 24 980.4 980.7 3.8
28/08:30am 6.9 -1.3 4.6 85 1.0 WNW 37 46 20 25 980.1 - 3.8
28/08:00am 6.9 -2.4 5.1 88 0.8 NW 43 50 23 27 980.2 - 3.8
28/07:30am 6.6 -2.4 4.6 87 0.9 NW 41 50 22 27 980.0 - 3.8
28/07:00am 6.7 -2.6 5.7 93 0.4 NW 44 50 24 27 979.8 - 3.8
28/06:30am 6.6 -5.0 5.6 93 0.4 NNW 56 76 30 41 979.3 - 3.8
28/06:10am 7.1 -4.6 6.4 95 0.3 NNW 57 82 31 44 979.0 - 2.6
28/06:00am 7.2 -3.9 6.3 94 0.4 N 54 61 29 33 979.0 979.3 2.2
28/05:30am 7.2 -3.5 6.3 94 0.4 N 52 61 28 33 979.5 - 2.0
28/05:00am 7.3 -3.5 6.2 93 0.5 N 52 59 28 32 979.9 - 2.0
28/04:30am 7.2 -4.3 6.1 93 0.5 N 56 63 30 34 980.4 - 2.0
28/04:00am 7.2 -4.5 6.3 94 0.4 N 57 69 31 37 980.9 - 2.0
28/03:30am 7.3 -5.5 6.4 94 0.4 N 63 76 34 41 981.5 - 2.0
28/03:00am 7.4 -8.6 6.3 93 0.5 N 80 98 43 53 981.5 981.8 2.0
28/02:55am 7.3 -8.7 6.4 94 0.4 N 80 98 43 53 981.7 - 2.0
28/02:53am 7.3 -9.6 6.6 95 0.3 N 85 98 46 53 981.5 - 2.0
28/02:37am 7.0 -5.4 6.3 95 0.3 N 61 85 33 46 982.4 - 1.8
28/02:30am 6.9 -5.6 6.2 95 0.3 N 61 78 33 42 982.8 - 1.8
28/02:23am 6.8 -5.7 6.1 95 0.3 N 61 78 33 42 983.2 - 1.8
28/02:00am 6.5 -3.6 5.6 94 0.4 N 48 59 26 32 984.8 - 1.2
28/01:30am 7.0 -5.6 5.6 91 0.6 N 61 72 33 39 986.1 - 0.2
28/01:00am 7.1 -5.9 5.3 88 0.8 N 63 72 34 39 987.1 - 0.2
28/12:30am 7.0 -5.2 5.5 90 0.7 N 59 70 32 38 988.1 - 0.2
28/12:00am 7.0 -5.6 5.6 91 0.6 N 61 70 33 38 989.2 989.5 0.2
 
Date/Time
EDT
Temp
°C
App
Temp
°C
Dew
Point
°C
Rel
Hum
%
Delta-T
°C
Wind Press
QNH
hPa
Press
MSL
hPa
Rain since
9am
mm
Dir  Spd
km/h
Gust
km/h
Spd
kts
Gust
kts
27/11:30pm 7.0 -5.2 5.5 90 0.7 N 59 67 32 36 990.1 - 0.2
27/11:00pm 7.1 -4.6 5.4 89 0.8 N 56 65 30 35 991.1 - 0.2
27/10:30pm 7.0 -4.9 5.3 89 0.8 N 57 67 31 36 992.0 - 0.2
27/10:00pm 6.9 -4.4 5.4 90 0.7 N 54 67 29 36 993.0 - 0.2
27/09:30pm 6.8 -4.1 5.3 90 0.7 NNW 52 61 28 33 993.7 - 0.2
27/09:00pm 6.8 -4.1 5.4 91 0.6 NNW 52 63 28 34 994.4 994.7 0.2
27/08:30pm 6.8 -4.1 5.3 90 0.7 NNW 52 59 28 32 995.2 - 0.0
27/08:00pm 7.0 -4.7 5.2 88 0.8 NNW 56 69 30 37 995.6 - 0.0
27/07:30pm 6.9 -4.1 5.2 89 0.7 NNW 52 59 28 32 996.1 - 0.0
27/07:00pm 6.9 -4.0 5.4 90 0.7 NNW 52 61 28 33 996.6 - 0.0
27/06:30pm 7.0 -4.0 5.2 88 0.8 NNW 52 61 28 33 997.0 - 0.0
27/06:00pm 7.0 -3.6 5.0 87 0.9 NNW 50 57 27 31 997.4 997.7 0.0
27/05:30pm 7.1 -3.6 4.8 85 1.0 NNW 50 59 27 32 997.7 - 0.0
27/05:00pm 7.0 -3.2 5.2 88 0.8 NNW 48 56 26 30 998.2 - 0.0
27/04:30pm 7.5 -2.0 5.0 84 1.1 NNW 44 50 24 27 998.6 - 0.0
27/04:00pm 7.9 -2.0 5.0 82 1.3 NNW 46 56 25 30 998.9 - 0.0
27/03:30pm 7.9 -1.5 4.5 79 1.5 NNW 43 59 23 32 999.2 - 0.0
27/03:00pm 7.9 -1.5 4.5 79 1.5 NNW 43 54 23 29 999.5 999.8 0.0
27/02:30pm 7.6 -1.5 4.2 79 1.5 NW 41 52 22 28 999.8 - 0.0
27/02:00pm 8.0 -1.0 4.4 78 1.6 NW 41 50 22 27 1000.1 - 0.0
27/01:42pm 7.4 -1.3 4.2 80 1.4 NW 39 65 21 35 1000.2 - 0.0
27/01:30pm 7.5 -1.2 4.1 79 1.5 NW 39 54 21 29 1000.3 - 0.0
27/01:00pm 7.7 -2.4 3.9 77 1.6 NW 46 54 25 29 1000.5 - 0.0
27/12:30pm 8.1 -2.4 3.8 74 1.9 NW 48 57 26 31 1000.6 - 0.0
27/12:00pm 8.3 -1.4 3.8 73 2.0 NW 44 50 24 27 1000.7 1001.0 0.0
27/11:30am 7.7 -2.2 2.8 71 2.1 WNW 44 52 24 28 1000.8 - 0.0
27/11:00am 7.6 -2.3 2.5 70 2.1 WNW 44 52 24 28 1000.9 - 0.0
27/10:30am 7.5 -2.5 2.4 70 2.1 WNW 44 52 24 28 1000.8 - 0.0
27/10:00am 7.3 -2.6 1.6 67 2.3 W 43 54 23 29 1000.8 - 0.0
27/09:30am 6.1 -4.5 1.1 70 2.0 W 46 54 25 29 1000.4 - 0.0
27/09:00am 6.7 -1.6 2.0 72 1.9 W 35 44 19 24 1000.2 1000.5 3.8
27/08:30am 5.1 -2.8 1.2 76 1.5 W 32 48 17 26 999.9 - 3.8
27/08:14am 4.9 -4.8 0.7 74 1.6 W 41 59 22 32 999.6 - 3.8
27/08:00am 5.3 -4.7 0.7 72 1.8 W 43 59 23 32 999.2 - 3.8
27/07:30am 5.5 -3.7 -1.0 63 2.4 W 37 50 20 27 998.8 - 3.8
27/07:10am 4.5 -5.5 -1.3 66 2.1 W 41 61 22 33 998.2 - 3.8
27/07:00am 4.8 -4.6 -0.2 70 1.9 W 39 56 21 30 998.1 - 3.8
27/06:30am 3.8 -5.6 -0.2 75 1.5 W 39 63 21 34 997.5 - 3.8
27/06:00am 3.3 -4.2 1.0 85 0.9 W 30 50 16 27 997.1 997.4 3.8
27/05:32am 2.4 -7.7 0.5 87 0.7 W 43 61 23 33 996.4 - 3.8
27/05:30am 2.4 -8.3 0.3 86 0.8 W 46 63 25 34 996.5 - 3.8
27/05:27am 2.8 -8.6 0.5 85 0.9 W 50 69 27 37 996.4 - 3.6
27/05:19am 4.0 -8.5 0.5 78 1.3 W 56 69 30 37 996.2 - 3.4
27/05:00am 4.2 -4.0 -1.2 68 2.0 W 32 59 17 32 995.3 - 3.4
27/04:30am 3.9 -4.0 -1.7 67 2.0 W 30 54 16 29 994.8 - 3.4
27/04:17am 3.6 -3.8 -1.0 72 1.7 W 28 54 15 29 994.3 - 3.4
27/04:00am 3.3 -1.9 -0.2 78 1.3 W 17 28 9 15 993.9 - 3.4
27/03:30am 3.4 -4.8 -0.8 74 1.5 WSW 32 57 17 31 993.7 - 3.4
27/03:21am 3.4 -5.7 -0.8 74 1.5 W 37 61 20 33 992.9 - 3.4
27/03:00am 3.6 -4.6 -0.8 73 1.6 WSW 32 59 17 32 992.7 993.0 3.4
27/02:52am 3.8 -4.9 -0.8 72 1.7 WSW 35 59 19 32 992.3 - 3.4
27/02:30am 3.8 -5.4 -1.0 71 1.8 W 37 65 20 35 991.6 - 3.4
27/02:00am 3.6 -5.5 -0.4 75 1.5 W 37 57 20 31 990.8 - 3.4
27/01:39am 3.1 -4.5 0.8 85 0.9 W 30 52 16 28 990.4 - 3.4
27/01:30am 2.6 -3.9 0.3 85 0.9 WSW 24 39 13 21 990.4 - 3.4
27/01:13am 3.7 -6.3 1.9 88 0.7 W 44 65 24 35 989.7 - 3.2
27/01:00am 3.4 -5.3 1.8 89 0.6 W 37 54 20 29 989.7 - 3.2
27/12:34am 4.4 -5.2 1.4 81 1.2 W 41 61 22 33 989.2 - 2.6
27/12:30am 4.5 -4.4 0.6 76 1.5 W 37 48 20 26 989.0 - 2.6
27/12:05am 4.0 -4.1 0.0 75 1.5 W 32 50 17 27 988.7 - 2.6
27/12:00am 3.8 -3.9 0.1 77 1.4 W 30 44 16 24 988.6 988.9 2.6
 
Date/Time
EDT
Temp
°C
App
Temp
°C
Dew
Point
°C
Rel
Hum
%
Delta-T
°C
Wind Press
QNH
hPa
Press
MSL
hPa
Rain since
9am
mm
Dir  Spd
km/h
Gust
km/h
Spd
kts
Gust
kts
26/11:30pm 2.8 -2.6 1.0 88 0.7 WSW 19 35 10 19 988.2 - 2.6
26/11:00pm 3.5 -4.4 1.1 84 0.9 W 32 52 17 28 987.7 - 2.2
26/10:30pm 3.7 -3.4 1.4 85 0.9 W 28 48 15 26 987.1 - 2.2
26/10:29pm 3.7 -3.4 1.4 85 0.9 W 28 48 15 26 987.2 - 2.2
26/10:15pm 3.3 -3.0 1.3 87 0.8 WSW 24 33 13 18 987.1 - 2.2
26/10:06pm 4.5 -4.2 2.0 84 1.0 W 37 67 20 36 986.6 - 1.8
26/10:00pm 4.6 -3.3 2.1 84 1.0 W 33 43 18 23 986.6 - 1.8
26/09:30pm 4.4 -5.1 1.9 84 1.0 W 41 56 22 30 986.2 - 1.8
26/09:00pm 5.1 -3.3 1.6 78 1.4 W 35 54 19 29 985.4 985.7 1.8
26/08:30pm 5.2 -2.7 2.2 81 1.2 W 33 54 18 29 984.9 - 1.8
26/08:00pm 5.3 -1.4 3.5 88 0.7 W 28 46 15 25 984.4 - 1.8
26/07:59pm 5.4 -1.3 3.6 88 0.8 W 28 46 15 25 984.4 - 1.8
26/07:30pm 6.0 -1.9 4.5 90 0.6 W 35 43 19 23 983.9 - 1.8
26/07:13pm 6.6 0.0 4.3 85 1.0 WNW 28 48 15 26 983.5 - 1.6
26/07:00pm 6.9 1.1 4.6 85 1.0 WNW 24 32 13 17 983.3 - 1.6
26/06:30pm 7.3 0.3 4.1 80 1.4 W 30 37 16 20 982.8 - 1.6
26/06:00pm 7.8 1.8 5.4 85 1.1 WNW 26 33 14 18 982.4 982.7 1.6
26/05:30pm 7.5 1.5 5.3 86 1.0 WNW 26 35 14 19 982.1 - 1.6
26/05:00pm 8.5 1.9 6.0 84 1.1 WNW 30 35 16 19 981.7 - 1.6
26/04:30pm 8.9 3.1 6.3 84 1.2 WNW 26 35 14 19 981.3 - 1.6
26/04:00pm 8.8 2.6 6.2 84 1.2 WNW 28 37 15 20 981.0 - 1.6
26/03:30pm 8.8 2.1 5.7 81 1.4 W 30 39 16 21 980.7 - 1.6
26/03:00pm 8.7 1.2 6.2 84 1.2 W 35 41 19 22 980.3 980.6 1.6
26/02:30pm 8.7 1.2 6.3 85 1.1 W 35 41 19 22 980.0 - 1.6
26/02:00pm 8.8 1.7 6.4 85 1.1 - 33 43 18 23 979.5 - 1.6
26/01:30pm 7.9 -1.3 5.5 85 1.1 - 43 52 23 28 979.1 - 1.6
26/01:00pm 8.1 -1.0 5.9 86 1.0 - 43 54 23 29 978.7 - 1.6
26/12:30pm 7.9 -1.6 6.5 91 0.6 - 46 57 25 31 978.2 - 1.6
26/12:00pm 8.2 -1.3 6.7 90 0.7 WNW 46 52 25 28 977.7 978.0 1.6
26/11:30am 7.6 -2.2 6.9 95 0.3 - 48 61 26 33 977.3 - 1.6
26/11:10am 7.4 -2.1 6.5 94 0.4 - 46 65 25 35 976.8 - 1.6
26/11:00am 7.6 -1.5 6.9 95 0.3 - 44 54 24 29 976.8 - 1.6
26/10:30am 7.5 -1.9 7.1 97 0.2 - 46 54 25 29 976.4 - 1.6
26/10:00am 7.6 -3.4 6.7 94 0.4 - 54 61 29 33 975.8 - 0.4
26/09:30am 7.5 -4.5 6.4 93 0.5 - 59 69 32 37 975.4 - 0.0
26/09:00am 7.2 -4.0 6.0 92 0.6 WNW 54 61 29 33 975.8 976.1 4.8
26/08:30am 7.1 -3.3 6.2 94 0.4 - 50 56 27 30 976.1 - 4.8
26/08:00am 6.8 -2.9 5.6 92 0.5 - 46 56 25 30 976.7 - 4.6
26/07:30am 6.8 -3.4 5.4 91 0.6 - 48 56 26 30 976.7 - 4.4
26/07:00am 7.2 -2.8 6.1 93 0.5 - 48 59 26 32 976.8 - 4.2
26/06:30am 7.1 -2.6 5.9 92 0.5 - 46 52 25 28 977.0 - 4.2
26/06:00am 7.1 -2.0 5.9 92 0.5 - 43 50 23 27 977.3 977.6 4.2
26/05:30am 7.1 -2.2 6.0 93 0.5 - 44 52 24 28 977.3 - 4.2
26/05:00am 7.0 -2.1 5.9 93 0.5 - 43 50 23 27 977.3 - 4.2
26/04:30am 7.0 -2.1 5.9 93 0.5 - 43 50 23 27 977.6 - 4.2
26/04:00am 6.9 -1.5 5.8 93 0.5 - 39 46 21 25 977.8 - 4.2
26/03:30am 6.7 -0.9 5.7 93 0.4 - 35 43 19 23 977.8 - 4.2
26/03:00am 6.7 -0.9 5.7 93 0.5 - 35 43 19 23 977.7 978.0 4.2
26/02:30am 6.9 -1.5 5.8 93 0.5 - 39 48 21 26 977.6 - 4.2
26/02:00am 6.6 0.3 5.6 93 0.4 - 28 35 15 19 977.7 - 4.2
26/01:30am 6.6 -1.1 5.4 92 0.5 - 35 43 19 23 977.6 - 4.2
26/01:00am 6.3 -2.6 5.1 92 0.5 - 41 48 22 26 977.5 - 4.2
26/12:30am 6.5 -2.9 5.6 94 0.4 - 44 54 24 29 977.4 - 4.2
26/12:00am 6.4 -3.3 5.7 95 0.3 - 46 56 25 30 977.4 977.7 3.8
 
Date/Time
EDT
Temp
°C
App
Temp
°C
Dew
Point
°C
Rel
Hum
%
Delta-T
°C
Wind Press
QNH
hPa
Press
MSL
hPa
Rain since
9am
mm
Dir  Spd
km/h
Gust
km/h
Spd
kts
Gust
kts
25/11:50pm 6.6 -1.7 6.0 96 0.3 - 39 59 21 32 977.5 - 3.6
25/11:30pm 6.8 -0.7 6.2 96 0.3 - 35 43 19 23 977.4 - 3.2
25/11:00pm 6.8 0.7 6.4 97 0.2 - 28 37 15 20 977.3 - 3.2
25/10:30pm 6.8 -0.7 6.4 97 0.2 - 35 41 19 22 977.0 - 3.2

Other formats

Comma delimited format used in spreadsheet applications
http://www.bom.gov.au/fwo/IDT60803/IDT60803.94998.axf

JavaScript Object Notation format (JSON) in row-major order
http://www.bom.gov.au/fwo/IDT60803/IDT60803.94998.json

Data quality

Most of these data are generated automatically and are frequently updated. Quality checks on data are not normally performed. It is possible for incorrect values to appear. Refer to information at About Latest Weather Observations and please check the disclaimer before using these data.